Charles City, IA

4:02 PM CST on February 07, 2016 (GMT -0600)
Charles City Municipal | | Change Station
CLOSE
Current Station
Airport
Location: Charles City,
Elevation: 1125 ft
Nearby Weather Stations
Active Advisory: Blizzard Warning

Elev 1125 ft 43.07 °N, 92.61 °W | Updated 27 minutes ago

Clear
Clear
37 °F
Feels Like 27 °F
N
21
Wind Variable Wind from West

Today
High -- | Low -- °F
--% Chance of Precip.
Yesterday
High -- | Low -- °F
Precip. -- in
Pressure 29.73 in
Visibility 10.0 miles
Clouds Clear
Windchill 27 °F
Dew Point 32 °F
Humidity 81%
Rainfall 0.00 in
Snow Depth Not available.
7:19 AM 5:30 PM
Waning Crescent, 1% visible
METAR KCCY 072135Z AUTO 28018KT 10SM CLR 03/M00 A2973 RMK AO2
Pressure 29.73 in
Visibility 10.0 miles
Clouds Clear
Windchill 27 °F
Dew Point 32 °F
Humidity 81%
Rainfall 0.00 in
Snow Depth Not available.
7:19 AM 5:30 PM
Waning Crescent, 1% visible
METAR KCCY 072135Z AUTO 28018KT 10SM CLR 03/M00 A2973 RMK AO2

10-Day Weather Forecast

Almanac

Astronomy

Feb. 07, 2016 Rise Set
Actual Time
Civil Twilight
Nautical Twilight
Astronomical Twilight
Moon
Length of Visible Light
Length of Day
Tomorrow will be .
, % of the Moon is Illuminated

Today's Extremes

State Highs State Lows

Community

WunderPhotos

Upload Photos

1,891,304 photos uploaded!

WunderBlog® & News

Nearby

Air Quality

  Air Quality AQ Index Pollutant
Not available.

Snow Depth

Station Depth Elevation

Earthquake Activity

City Distance Mag. Time & Date
Minimum magnitude displayed is 2.5.

Coastal Water Temperatures

Place Temperature

Stations

Nearby Weather Stations

Station Location Temp. Windchill Dew Point Humidity Wind Precip. Elev Updated Type
                   

Watches & Warnings

Blizzard Warning
Issued: 2:52 PM CST Feb. 7, 2016 – National Weather Service

... Blizzard Warning remains in effect from 7 PM this evening to
6 PM CST Monday...

* occasional blizzard conditions to develop around 7
PM... diminishing during the afternoon Monday.

* Winds gusting as high as 45 mph will cause whiteout conditions
in blowing snow. Significant drifting will also be seen...
especially in rural and open areas.

* Total snow accumulations up to 2 inches is expected from snow
showers.

* Travel will be very difficult to impossible... including the
Monday morning commute.

Precautionary/preparedness actions...

A Blizzard Warning means severe winter weather conditions are
expected or occurring. Falling and blowing snow with strong winds
and poor visibilities are likely. This will lead to whiteout
conditions... making travel extremely dangerous. Do not travel. If
you must travel... have a winter survival kit with you. If you get
stranded... stay with your vehicle. The latest Road conditions for
the state you are calling from can be obtained by calling 5 1 1.